Ogle, Kentucky
Current Conditions -  °F | °C
As of 2:53 PM on Monday 26 Jan 2015 (Local Time) from KLOZ Reporting Station
Overcast Overcast  
Wind Chill: 20°   Ceiling: 1100
Heat Index: 29°   Visibility: 10mi
Dew Point: 21°   Wind: 9mph
Humidity: 72%   Direction: 300°WNW
Pressure: 29.87"   Gusts: NA
Location:  37.1101°N, 83.7537°W
Report Text: KLOZ 261953Z AUTO 30008KT 10SM OVC011 M02/M06 A2987 RMK AO2 SLP122 T10171061
Loading
Personal Weather Stations






























Interactive Weather Map New forecast layout! Learn more

10-Day Weather Forecast

Advertisements
Track Severe Weather on mobile